sensor_id;sensor_type;location;lat;lon;timestamp;P1;durP1;ratioP1;P2;durP2;ratioP2
19507;SDS011;40157;42.566;27.526;2023-02-22T00:01:07;4.10;;;2.13;;
19507;SDS011;40157;42.566;27.526;2023-02-22T00:03:21;3.37;;;2.07;;
19507;SDS011;40157;42.566;27.526;2023-02-22T00:05:26;7.20;;;2.40;;
19507;SDS011;40157;42.566;27.526;2023-02-22T00:07:30;4.50;;;2.10;;
19507;SDS011;40157;42.566;27.526;2023-02-22T00:09:30;4.77;;;2.60;;
19507;SDS011;40157;42.566;27.526;2023-02-22T00:11:31;7.10;;;2.63;;
19507;SDS011;40157;42.566;27.526;2023-02-22T00:13:35;4.27;;;2.60;;
19507;SDS011;40157;42.566;27.526;2023-02-22T00:15:36;4.73;;;2.60;;
19507;SDS011;40157;42.566;27.526;2023-02-22T00:17:40;5.87;;;2.57;;
19507;SDS011;40157;42.566;27.526;2023-02-22T00:19:40;6.23;;;2.83;;
19507;SDS011;40157;42.566;27.526;2023-02-22T00:21:41;5.57;;;3.00;;
19507;SDS011;40157;42.566;27.526;2023-02-22T00:23:44;10.83;;;3.93;;
19507;SDS011;40157;42.566;27.526;2023-02-22T00:25:47;5.87;;;3.33;;
19507;SDS011;40157;42.566;27.526;2023-02-22T00:27:49;6.10;;;3.13;;
19507;SDS011;40157;42.566;27.526;2023-02-22T00:29:51;5.27;;;3.40;;
19507;SDS011;40157;42.566;27.526;2023-02-22T00:31:52;6.13;;;2.53;;
19507;SDS011;40157;42.566;27.526;2023-02-22T00:33:53;4.87;;;2.80;;
19507;SDS011;40157;42.566;27.526;2023-02-22T00:35:54;5.83;;;2.70;;
19507;SDS011;40157;42.566;27.526;2023-02-22T00:37:55;8.47;;;2.97;;
19507;SDS011;40157;42.566;27.526;2023-02-22T00:39:57;6.23;;;2.73;;
19507;SDS011;40157;42.566;27.526;2023-02-22T00:41:58;6.73;;;3.20;;
19507;SDS011;40157;42.566;27.526;2023-02-22T00:43:58;11.70;;;3.20;;
19507;SDS011;40157;42.566;27.526;2023-02-22T00:45:59;5.93;;;3.13;;
19507;SDS011;40157;42.566;27.526;2023-02-22T00:48:00;5.73;;;3.27;;
19507;SDS011;40157;42.566;27.526;2023-02-22T00:50:01;4.93;;;3.47;;
19507;SDS011;40157;42.566;27.526;2023-02-22T00:52:02;8.63;;;3.73;;
19507;SDS011;40157;42.566;27.526;2023-02-22T00:54:03;7.23;;;4.00;;
19507;SDS011;40157;42.566;27.526;2023-02-22T00:56:04;8.90;;;3.80;;
19507;SDS011;40157;42.566;27.526;2023-02-22T00:58:05;8.47;;;4.03;;
19507;SDS011;40157;42.566;27.526;2023-02-22T01:00:08;11.93;;;4.57;;
19507;SDS011;40157;42.566;27.526;2023-02-22T01:02:12;7.80;;;4.20;;
19507;SDS011;40157;42.566;27.526;2023-02-22T01:04:13;8.07;;;3.90;;
19507;SDS011;40157;42.566;27.526;2023-02-22T01:06:14;8.37;;;3.67;;
19507;SDS011;40157;42.566;27.526;2023-02-22T01:08:15;8.90;;;4.53;;
19507;SDS011;40157;42.566;27.526;2023-02-22T01:10:19;7.03;;;4.03;;
19507;SDS011;40157;42.566;27.526;2023-02-22T01:12:21;11.93;;;5.43;;
19507;SDS011;40157;42.566;27.526;2023-02-22T01:14:22;11.07;;;5.30;;
19507;SDS011;40157;42.566;27.526;2023-02-22T01:16:25;7.50;;;4.10;;
19507;SDS011;40157;42.566;27.526;2023-02-22T01:18:26;5.43;;;3.27;;
19507;SDS011;40157;42.566;27.526;2023-02-22T01:20:26;6.70;;;3.47;;
19507;SDS011;40157;42.566;27.526;2023-02-22T01:22:30;7.07;;;3.90;;
19507;SDS011;40157;42.566;27.526;2023-02-22T01:24:31;13.37;;;4.60;;
19507;SDS011;40157;42.566;27.526;2023-02-22T01:26:31;10.30;;;4.80;;
19507;SDS011;40157;42.566;27.526;2023-02-22T01:28:32;8.47;;;5.37;;
19507;SDS011;40157;42.566;27.526;2023-02-22T01:30:34;6.90;;;4.60;;
19507;SDS011;40157;42.566;27.526;2023-02-22T01:32:35;10.43;;;4.93;;
19507;SDS011;40157;42.566;27.526;2023-02-22T01:34:36;9.57;;;4.93;;
19507;SDS011;40157;42.566;27.526;2023-02-22T01:36:37;30.47;;;10.03;;
19507;SDS011;40157;42.566;27.526;2023-02-22T01:38:39;18.90;;;6.50;;
19507;SDS011;40157;42.566;27.526;2023-02-22T01:40:40;11.47;;;5.47;;
19507;SDS011;40157;42.566;27.526;2023-02-22T01:42:43;10.77;;;4.70;;
19507;SDS011;40157;42.566;27.526;2023-02-22T01:44:43;9.23;;;4.53;;
19507;SDS011;40157;42.566;27.526;2023-02-22T01:46:44;31.30;;;11.30;;
19507;SDS011;40157;42.566;27.526;2023-02-22T01:48:46;16.87;;;7.30;;
19507;SDS011;40157;42.566;27.526;2023-02-22T01:50:53;11.47;;;5.30;;
19507;SDS011;40157;42.566;27.526;2023-02-22T01:52:54;8.70;;;3.87;;
19507;SDS011;40157;42.566;27.526;2023-02-22T01:54:56;9.70;;;4.80;;
19507;SDS011;40157;42.566;27.526;2023-02-22T01:59:08;10.53;;;4.47;;
19507;SDS011;40157;42.566;27.526;2023-02-22T02:01:10;9.53;;;4.60;;
19507;SDS011;40157;42.566;27.526;2023-02-22T02:03:16;6.07;;;3.67;;
19507;SDS011;40157;42.566;27.526;2023-02-22T02:05:22;5.87;;;3.03;;
19507;SDS011;40157;42.566;27.526;2023-02-22T02:07:23;5.33;;;2.90;;
19507;SDS011;40157;42.566;27.526;2023-02-22T02:09:25;4.33;;;2.70;;
19507;SDS011;40157;42.566;27.526;2023-02-22T02:11:29;8.17;;;3.97;;
19507;SDS011;40157;42.566;27.526;2023-02-22T02:13:32;4.70;;;2.80;;
19507;SDS011;40157;42.566;27.526;2023-02-22T02:15:33;4.60;;;2.83;;
19507;SDS011;40157;42.566;27.526;2023-02-22T02:17:34;4.93;;;3.20;;
19507;SDS011;40157;42.566;27.526;2023-02-22T02:19:57;9.50;;;3.07;;
19507;SDS011;40157;42.566;27.526;2023-02-22T02:22:10;5.83;;;3.40;;
19507;SDS011;40157;42.566;27.526;2023-02-22T02:27:01;10.93;;;4.40;;
19507;SDS011;40157;42.566;27.526;2023-02-22T02:33:41;5.70;;;3.33;;
19507;SDS011;40157;42.566;27.526;2023-02-22T02:36:08;10.10;;;3.57;;
19507;SDS011;40157;42.566;27.526;2023-02-22T02:43:08;8.20;;;3.07;;
19507;SDS011;40157;42.566;27.526;2023-02-22T02:45:32;5.40;;;2.90;;
19507;SDS011;40157;42.566;27.526;2023-02-22T02:47:44;5.50;;;2.83;;
19507;SDS011;40157;42.566;27.526;2023-02-22T02:51:49;7.87;;;2.93;;
19507;SDS011;40157;42.566;27.526;2023-02-22T02:53:52;9.83;;;3.07;;
19507;SDS011;40157;42.566;27.526;2023-02-22T02:55:54;8.50;;;2.83;;
19507;SDS011;40157;42.566;27.526;2023-02-22T02:57:57;4.47;;;2.53;;
19507;SDS011;40157;42.566;27.526;2023-02-22T02:59:59;6.07;;;2.90;;
19507;SDS011;40157;42.566;27.526;2023-02-22T03:02:07;6.13;;;2.83;;
19507;SDS011;40157;42.566;27.526;2023-02-22T03:04:19;9.47;;;3.70;;
19507;SDS011;40157;42.566;27.526;2023-02-22T03:07:14;5.37;;;3.37;;
19507;SDS011;40157;42.566;27.526;2023-02-22T03:14:21;5.17;;;3.30;;
19507;SDS011;40157;42.566;27.526;2023-02-22T03:16:31;6.43;;;4.03;;
19507;SDS011;40157;42.566;27.526;2023-02-22T03:21:04;8.67;;;4.33;;
19507;SDS011;40157;42.566;27.526;2023-02-22T03:23:24;8.43;;;4.57;;
19507;SDS011;40157;42.566;27.526;2023-02-22T03:25:51;6.93;;;4.03;;
19507;SDS011;40157;42.566;27.526;2023-02-22T03:27:53;7.20;;;3.07;;
19507;SDS011;40157;42.566;27.526;2023-02-22T03:30:03;7.83;;;2.70;;
19507;SDS011;40157;42.566;27.526;2023-02-22T03:32:09;6.57;;;2.60;;
19507;SDS011;40157;42.566;27.526;2023-02-22T03:34:20;4.40;;;2.60;;
19507;SDS011;40157;42.566;27.526;2023-02-22T03:36:28;4.83;;;2.67;;
19507;SDS011;40157;42.566;27.526;2023-02-22T03:38:32;7.40;;;2.87;;
19507;SDS011;40157;42.566;27.526;2023-02-22T03:40:37;6.33;;;2.93;;
19507;SDS011;40157;42.566;27.526;2023-02-22T03:42:46;4.47;;;2.77;;
19507;SDS011;40157;42.566;27.526;2023-02-22T03:44:52;6.20;;;3.07;;
19507;SDS011;40157;42.566;27.526;2023-02-22T03:46:56;7.90;;;3.17;;
19507;SDS011;40157;42.566;27.526;2023-02-22T03:49:10;6.97;;;3.13;;
19507;SDS011;40157;42.566;27.526;2023-02-22T03:51:32;6.10;;;2.80;;
19507;SDS011;40157;42.566;27.526;2023-02-22T03:53:33;4.27;;;2.90;;
19507;SDS011;40157;42.566;27.526;2023-02-22T03:55:36;6.37;;;2.90;;
19507;SDS011;40157;42.566;27.526;2023-02-22T03:57:38;7.80;;;3.10;;
19507;SDS011;40157;42.566;27.526;2023-02-22T03:59:43;7.90;;;2.83;;
19507;SDS011;40157;42.566;27.526;2023-02-22T04:01:45;9.47;;;3.60;;
19507;SDS011;40157;42.566;27.526;2023-02-22T04:03:45;7.60;;;4.40;;
19507;SDS011;40157;42.566;27.526;2023-02-22T04:05:46;8.87;;;3.77;;
19507;SDS011;40157;42.566;27.526;2023-02-22T04:07:46;6.30;;;3.73;;
19507;SDS011;40157;42.566;27.526;2023-02-22T04:09:47;8.30;;;4.60;;
19507;SDS011;40157;42.566;27.526;2023-02-22T04:11:47;7.27;;;4.37;;
19507;SDS011;40157;42.566;27.526;2023-02-22T04:13:48;7.47;;;3.60;;
19507;SDS011;40157;42.566;27.526;2023-02-22T04:15:49;6.27;;;3.13;;
19507;SDS011;40157;42.566;27.526;2023-02-22T04:17:49;7.53;;;3.30;;
19507;SDS011;40157;42.566;27.526;2023-02-22T04:19:51;5.27;;;2.77;;
19507;SDS011;40157;42.566;27.526;2023-02-22T04:21:51;8.37;;;3.17;;
19507;SDS011;40157;42.566;27.526;2023-02-22T04:23:52;9.63;;;2.53;;
19507;SDS011;40157;42.566;27.526;2023-02-22T04:25:52;5.47;;;3.23;;
19507;SDS011;40157;42.566;27.526;2023-02-22T04:27:53;7.40;;;3.47;;
19507;SDS011;40157;42.566;27.526;2023-02-22T04:29:53;8.53;;;4.77;;
19507;SDS011;40157;42.566;27.526;2023-02-22T04:31:54;8.43;;;5.80;;
19507;SDS011;40157;42.566;27.526;2023-02-22T04:33:54;13.43;;;6.50;;
19507;SDS011;40157;42.566;27.526;2023-02-22T04:35:55;13.63;;;6.77;;
19507;SDS011;40157;42.566;27.526;2023-02-22T04:37:56;7.97;;;5.20;;
19507;SDS011;40157;42.566;27.526;2023-02-22T04:39:57;11.20;;;5.10;;
19507;SDS011;40157;42.566;27.526;2023-02-22T04:41:57;6.30;;;3.70;;
19507;SDS011;40157;42.566;27.526;2023-02-22T04:43:58;9.23;;;4.53;;
19507;SDS011;40157;42.566;27.526;2023-02-22T04:45:58;9.20;;;5.40;;
19507;SDS011;40157;42.566;27.526;2023-02-22T04:47:59;8.80;;;5.23;;
19507;SDS011;40157;42.566;27.526;2023-02-22T04:49:59;11.00;;;5.47;;
19507;SDS011;40157;42.566;27.526;2023-02-22T04:52:00;7.37;;;4.47;;
19507;SDS011;40157;42.566;27.526;2023-02-22T04:54:00;9.03;;;4.30;;
19507;SDS011;40157;42.566;27.526;2023-02-22T04:56:01;8.43;;;3.90;;
19507;SDS011;40157;42.566;27.526;2023-02-22T04:58:02;9.60;;;3.50;;
19507;SDS011;40157;42.566;27.526;2023-02-22T05:00:03;6.10;;;3.20;;
19507;SDS011;40157;42.566;27.526;2023-02-22T05:02:05;5.60;;;3.37;;
19507;SDS011;40157;42.566;27.526;2023-02-22T05:04:05;4.63;;;2.93;;
19507;SDS011;40157;42.566;27.526;2023-02-22T05:06:07;8.93;;;3.40;;
19507;SDS011;40157;42.566;27.526;2023-02-22T05:08:08;6.93;;;3.70;;
19507;SDS011;40157;42.566;27.526;2023-02-22T05:10:09;5.97;;;3.17;;
19507;SDS011;40157;42.566;27.526;2023-02-22T05:12:10;4.73;;;3.33;;
19507;SDS011;40157;42.566;27.526;2023-02-22T05:14:11;6.63;;;3.13;;
19507;SDS011;40157;42.566;27.526;2023-02-22T05:16:11;12.30;;;5.10;;
19507;SDS011;40157;42.566;27.526;2023-02-22T05:18:12;34.30;;;13.17;;
19507;SDS011;40157;42.566;27.526;2023-02-22T05:20:24;26.50;;;12.27;;
19507;SDS011;40157;42.566;27.526;2023-02-22T05:22:27;26.20;;;9.67;;
19507;SDS011;40157;42.566;27.526;2023-02-22T05:24:28;20.87;;;10.10;;
19507;SDS011;40157;42.566;27.526;2023-02-22T05:26:28;20.70;;;9.73;;
19507;SDS011;40157;42.566;27.526;2023-02-22T05:28:29;14.03;;;7.53;;
19507;SDS011;40157;42.566;27.526;2023-02-22T05:30:32;14.13;;;6.50;;
19507;SDS011;40157;42.566;27.526;2023-02-22T05:32:34;23.37;;;11.23;;
19507;SDS011;40157;42.566;27.526;2023-02-22T05:34:34;29.90;;;13.73;;
19507;SDS011;40157;42.566;27.526;2023-02-22T05:36:35;34.63;;;14.57;;
19507;SDS011;40157;42.566;27.526;2023-02-22T05:38:36;26.27;;;11.97;;
19507;SDS011;40157;42.566;27.526;2023-02-22T05:40:43;21.90;;;9.70;;
19507;SDS011;40157;42.566;27.526;2023-02-22T05:42:44;20.00;;;10.57;;
19507;SDS011;40157;42.566;27.526;2023-02-22T05:44:44;19.67;;;8.57;;
19507;SDS011;40157;42.566;27.526;2023-02-22T05:46:45;11.83;;;5.90;;
19507;SDS011;40157;42.566;27.526;2023-02-22T05:48:45;8.67;;;4.90;;
19507;SDS011;40157;42.566;27.526;2023-02-22T05:50:45;17.80;;;5.70;;
19507;SDS011;40157;42.566;27.526;2023-02-22T05:52:46;21.27;;;5.40;;
19507;SDS011;40157;42.566;27.526;2023-02-22T05:54:47;10.53;;;4.37;;
19507;SDS011;40157;42.566;27.526;2023-02-22T05:56:48;9.30;;;4.80;;
19507;SDS011;40157;42.566;27.526;2023-02-22T05:58:48;8.97;;;4.83;;
19507;SDS011;40157;42.566;27.526;2023-02-22T06:00:49;16.67;;;6.53;;
19507;SDS011;40157;42.566;27.526;2023-02-22T06:03:02;17.20;;;7.50;;
19507;SDS011;40157;42.566;27.526;2023-02-22T06:05:05;15.90;;;7.60;;
19507;SDS011;40157;42.566;27.526;2023-02-22T06:07:05;12.60;;;6.43;;
19507;SDS011;40157;42.566;27.526;2023-02-22T06:09:06;12.00;;;5.57;;
19507;SDS011;40157;42.566;27.526;2023-02-22T06:11:06;10.33;;;4.80;;
19507;SDS011;40157;42.566;27.526;2023-02-22T06:13:08;10.20;;;4.33;;
19507;SDS011;40157;42.566;27.526;2023-02-22T06:15:09;15.07;;;4.77;;
19507;SDS011;40157;42.566;27.526;2023-02-22T06:17:09;15.87;;;5.77;;
19507;SDS011;40157;42.566;27.526;2023-02-22T06:19:12;13.03;;;5.90;;
19507;SDS011;40157;42.566;27.526;2023-02-22T06:21:12;9.13;;;4.50;;
19507;SDS011;40157;42.566;27.526;2023-02-22T06:23:13;10.23;;;4.67;;
19507;SDS011;40157;42.566;27.526;2023-02-22T06:25:14;7.30;;;3.97;;
19507;SDS011;40157;42.566;27.526;2023-02-22T06:27:16;13.40;;;5.23;;
19507;SDS011;40157;42.566;27.526;2023-02-22T06:29:16;15.57;;;7.17;;
19507;SDS011;40157;42.566;27.526;2023-02-22T06:31:17;17.93;;;7.40;;
19507;SDS011;40157;42.566;27.526;2023-02-22T06:33:17;10.40;;;5.30;;
19507;SDS011;40157;42.566;27.526;2023-02-22T06:35:18;13.67;;;6.50;;
19507;SDS011;40157;42.566;27.526;2023-02-22T06:37:19;10.90;;;5.70;;
19507;SDS011;40157;42.566;27.526;2023-02-22T06:39:19;10.27;;;5.67;;
19507;SDS011;40157;42.566;27.526;2023-02-22T06:41:20;10.40;;;5.93;;
19507;SDS011;40157;42.566;27.526;2023-02-22T06:43:21;14.90;;;6.47;;
19507;SDS011;40157;42.566;27.526;2023-02-22T06:45:23;17.40;;;8.50;;
19507;SDS011;40157;42.566;27.526;2023-02-22T06:47:23;18.33;;;7.73;;
19507;SDS011;40157;42.566;27.526;2023-02-22T06:49:24;32.53;;;14.70;;
19507;SDS011;40157;42.566;27.526;2023-02-22T06:51:26;21.30;;;8.57;;
19507;SDS011;40157;42.566;27.526;2023-02-22T06:53:28;18.20;;;8.77;;
19507;SDS011;40157;42.566;27.526;2023-02-22T06:55:29;18.13;;;7.40;;
19507;SDS011;40157;42.566;27.526;2023-02-22T06:57:31;13.23;;;7.07;;
19507;SDS011;40157;42.566;27.526;2023-02-22T06:59:31;16.27;;;7.20;;
19507;SDS011;40157;42.566;27.526;2023-02-22T07:01:32;14.87;;;6.97;;
19507;SDS011;40157;42.566;27.526;2023-02-22T07:03:33;14.00;;;7.40;;
19507;SDS011;40157;42.566;27.526;2023-02-22T07:05:34;18.17;;;7.30;;
19507;SDS011;40157;42.566;27.526;2023-02-22T07:07:35;11.80;;;6.97;;
19507;SDS011;40157;42.566;27.526;2023-02-22T07:09:37;14.57;;;6.63;;
19507;SDS011;40157;42.566;27.526;2023-02-22T07:11:38;13.23;;;6.80;;
19507;SDS011;40157;42.566;27.526;2023-02-22T07:13:39;15.97;;;6.67;;
19507;SDS011;40157;42.566;27.526;2023-02-22T07:15:39;20.37;;;6.87;;
19507;SDS011;40157;42.566;27.526;2023-02-22T07:17:40;9.63;;;6.40;;
19507;SDS011;40157;42.566;27.526;2023-02-22T07:19:41;14.50;;;6.57;;
19507;SDS011;40157;42.566;27.526;2023-02-22T07:21:41;17.87;;;6.27;;
19507;SDS011;40157;42.566;27.526;2023-02-22T07:23:45;16.47;;;6.43;;
19507;SDS011;40157;42.566;27.526;2023-02-22T07:25:50;10.53;;;5.90;;
19507;SDS011;40157;42.566;27.526;2023-02-22T07:27:50;11.90;;;5.70;;
19507;SDS011;40157;42.566;27.526;2023-02-22T07:29:53;12.10;;;5.63;;
19507;SDS011;40157;42.566;27.526;2023-02-22T07:31:54;10.10;;;5.67;;
19507;SDS011;40157;42.566;27.526;2023-02-22T07:33:54;12.73;;;6.00;;
19507;SDS011;40157;42.566;27.526;2023-02-22T07:35:56;17.90;;;6.23;;
19507;SDS011;40157;42.566;27.526;2023-02-22T07:37:56;13.40;;;5.80;;
19507;SDS011;40157;42.566;27.526;2023-02-22T07:39:57;10.77;;;5.60;;
19507;SDS011;40157;42.566;27.526;2023-02-22T07:41:58;10.17;;;5.70;;
19507;SDS011;40157;42.566;27.526;2023-02-22T07:43:58;12.87;;;6.50;;
19507;SDS011;40157;42.566;27.526;2023-02-22T07:45:59;12.23;;;5.60;;
19507;SDS011;40157;42.566;27.526;2023-02-22T07:48:02;12.23;;;6.27;;
19507;SDS011;40157;42.566;27.526;2023-02-22T07:50:04;13.13;;;5.80;;
19507;SDS011;40157;42.566;27.526;2023-02-22T07:52:04;14.70;;;5.80;;
19507;SDS011;40157;42.566;27.526;2023-02-22T07:54:06;8.97;;;5.37;;
19507;SDS011;40157;42.566;27.526;2023-02-22T07:56:07;8.90;;;4.87;;
19507;SDS011;40157;42.566;27.526;2023-02-22T07:58:08;9.67;;;4.93;;
19507;SDS011;40157;42.566;27.526;2023-02-22T08:00:12;10.13;;;5.37;;
19507;SDS011;40157;42.566;27.526;2023-02-22T08:02:15;12.23;;;5.10;;
19507;SDS011;40157;42.566;27.526;2023-02-22T08:04:16;10.73;;;4.70;;
19507;SDS011;40157;42.566;27.526;2023-02-22T08:06:17;10.20;;;4.77;;
19507;SDS011;40157;42.566;27.526;2023-02-22T08:08:17;9.83;;;5.33;;
19507;SDS011;40157;42.566;27.526;2023-02-22T08:10:19;10.67;;;5.33;;
19507;SDS011;40157;42.566;27.526;2023-02-22T08:12:22;15.87;;;5.70;;
19507;SDS011;40157;42.566;27.526;2023-02-22T08:14:23;12.83;;;5.43;;
19507;SDS011;40157;42.566;27.526;2023-02-22T08:16:23;10.60;;;4.80;;
19507;SDS011;40157;42.566;27.526;2023-02-22T08:18:24;10.50;;;4.43;;
19507;SDS011;40157;42.566;27.526;2023-02-22T08:20:25;7.53;;;3.83;;
19507;SDS011;40157;42.566;27.526;2023-02-22T08:22:26;11.73;;;4.63;;
19507;SDS011;40157;42.566;27.526;2023-02-22T08:24:28;12.90;;;4.37;;
19507;SDS011;40157;42.566;27.526;2023-02-22T08:26:28;11.67;;;4.47;;
19507;SDS011;40157;42.566;27.526;2023-02-22T08:28:29;9.70;;;4.50;;
19507;SDS011;40157;42.566;27.526;2023-02-22T08:30:29;10.23;;;5.00;;
19507;SDS011;40157;42.566;27.526;2023-02-22T08:32:31;9.57;;;3.87;;
19507;SDS011;40157;42.566;27.526;2023-02-22T08:34:31;7.97;;;4.53;;
19507;SDS011;40157;42.566;27.526;2023-02-22T08:36:33;13.73;;;5.47;;
19507;SDS011;40157;42.566;27.526;2023-02-22T08:38:33;9.57;;;4.70;;
19507;SDS011;40157;42.566;27.526;2023-02-22T08:40:35;9.10;;;4.63;;
19507;SDS011;40157;42.566;27.526;2023-02-22T08:42:36;8.73;;;4.67;;
19507;SDS011;40157;42.566;27.526;2023-02-22T08:44:42;11.23;;;4.30;;
19507;SDS011;40157;42.566;27.526;2023-02-22T08:46:43;9.03;;;4.67;;
19507;SDS011;40157;42.566;27.526;2023-02-22T08:48:50;12.53;;;4.50;;
19507;SDS011;40157;42.566;27.526;2023-02-22T08:50:51;8.43;;;4.47;;
19507;SDS011;40157;42.566;27.526;2023-02-22T08:52:52;11.90;;;4.40;;
19507;SDS011;40157;42.566;27.526;2023-02-22T08:54:54;8.50;;;4.73;;
19507;SDS011;40157;42.566;27.526;2023-02-22T08:56:54;10.73;;;4.30;;
19507;SDS011;40157;42.566;27.526;2023-02-22T08:58:55;7.97;;;4.10;;
19507;SDS011;40157;42.566;27.526;2023-02-22T09:00:58;12.83;;;4.77;;
19507;SDS011;40157;42.566;27.526;2023-02-22T09:02:59;10.30;;;4.50;;
19507;SDS011;40157;42.566;27.526;2023-02-22T09:05:01;7.00;;;3.70;;
19507;SDS011;40157;42.566;27.526;2023-02-22T09:07:01;9.07;;;4.20;;
19507;SDS011;40157;42.566;27.526;2023-02-22T09:09:02;10.77;;;4.60;;
19507;SDS011;40157;42.566;27.526;2023-02-22T09:11:03;9.30;;;4.30;;
19507;SDS011;40157;42.566;27.526;2023-02-22T09:13:03;10.80;;;4.33;;
19507;SDS011;40157;42.566;27.526;2023-02-22T09:15:04;9.13;;;4.00;;
19507;SDS011;40157;42.566;27.526;2023-02-22T09:17:04;10.37;;;4.73;;
19507;SDS011;40157;42.566;27.526;2023-02-22T09:19:05;6.87;;;4.23;;
19507;SDS011;40157;42.566;27.526;2023-02-22T09:21:05;9.23;;;5.50;;
19507;SDS011;40157;42.566;27.526;2023-02-22T09:23:06;8.27;;;4.50;;
19507;SDS011;40157;42.566;27.526;2023-02-22T09:25:08;14.80;;;3.80;;
19507;SDS011;40157;42.566;27.526;2023-02-22T09:27:09;6.83;;;3.93;;
19507;SDS011;40157;42.566;27.526;2023-02-22T09:29:11;15.20;;;4.17;;
19507;SDS011;40157;42.566;27.526;2023-02-22T09:31:11;9.33;;;4.67;;
19507;SDS011;40157;42.566;27.526;2023-02-22T09:33:14;9.53;;;4.20;;
19507;SDS011;40157;42.566;27.526;2023-02-22T09:35:16;7.93;;;4.10;;
19507;SDS011;40157;42.566;27.526;2023-02-22T09:37:16;11.10;;;5.37;;
19507;SDS011;40157;42.566;27.526;2023-02-22T09:39:17;13.63;;;6.47;;
19507;SDS011;40157;42.566;27.526;2023-02-22T09:41:28;15.43;;;6.90;;
19507;SDS011;40157;42.566;27.526;2023-02-22T09:43:47;13.33;;;4.93;;
19507;SDS011;40157;42.566;27.526;2023-02-22T09:46:00;9.47;;;4.40;;
19507;SDS011;40157;42.566;27.526;2023-02-22T09:48:11;8.63;;;3.83;;
19507;SDS011;40157;42.566;27.526;2023-02-22T09:50:20;8.03;;;3.63;;
19507;SDS011;40157;42.566;27.526;2023-02-22T09:52:24;10.70;;;4.30;;
19507;SDS011;40157;42.566;27.526;2023-02-22T09:54:43;11.60;;;3.80;;
19507;SDS011;40157;42.566;27.526;2023-02-22T09:56:52;7.73;;;3.87;;
19507;SDS011;40157;42.566;27.526;2023-02-22T09:58:58;14.33;;;5.00;;
19507;SDS011;40157;42.566;27.526;2023-02-22T10:03:23;8.50;;;4.03;;
19507;SDS011;40157;42.566;27.526;2023-02-22T10:05:33;5.63;;;3.10;;
19507;SDS011;40157;42.566;27.526;2023-02-22T10:07:42;8.80;;;3.40;;
19507;SDS011;40157;42.566;27.526;2023-02-22T10:09:50;6.80;;;3.50;;
19507;SDS011;40157;42.566;27.526;2023-02-22T10:11:59;9.57;;;4.00;;
19507;SDS011;40157;42.566;27.526;2023-02-22T10:17:07;7.70;;;4.13;;
19507;SDS011;40157;42.566;27.526;2023-02-22T10:26:20;6.33;;;3.70;;
19507;SDS011;40157;42.566;27.526;2023-02-22T10:28:29;10.07;;;5.07;;
19507;SDS011;40157;42.566;27.526;2023-02-22T10:30:42;7.50;;;4.10;;
19507;SDS011;40157;42.566;27.526;2023-02-22T10:35:20;8.18;;;3.35;;
19507;SDS011;40157;42.566;27.526;2023-02-22T10:39:27;10.85;;;4.47;;
19507;SDS011;40157;42.566;27.526;2023-02-22T10:41:31;10.10;;;4.38;;
19507;SDS011;40157;42.566;27.526;2023-02-22T10:43:33;13.07;;;6.45;;
19507;SDS011;40157;42.566;27.526;2023-02-22T10:45:36;11.52;;;5.28;;
19507;SDS011;40157;42.566;27.526;2023-02-22T10:47:37;11.35;;;5.43;;
19507;SDS011;40157;42.566;27.526;2023-02-22T10:49:48;12.63;;;5.82;;
19507;SDS011;40157;42.566;27.526;2023-02-22T10:51:59;9.60;;;5.45;;
19507;SDS011;40157;42.566;27.526;2023-02-22T10:56:20;12.35;;;5.40;;
19507;SDS011;40157;42.566;27.526;2023-02-22T10:58:23;9.48;;;4.00;;
19507;SDS011;40157;42.566;27.526;2023-02-22T11:02:30;10.13;;;4.10;;
19507;SDS011;40157;42.566;27.526;2023-02-22T11:04:44;11.27;;;5.05;;
19507;SDS011;40157;42.566;27.526;2023-02-22T11:06:49;10.68;;;4.30;;
19507;SDS011;40157;42.566;27.526;2023-02-22T11:09:11;10.70;;;4.53;;
19507;SDS011;40157;42.566;27.526;2023-02-22T11:11:23;7.90;;;4.63;;
19507;SDS011;40157;42.566;27.526;2023-02-22T11:15:28;7.85;;;4.88;;
19507;SDS011;40157;42.566;27.526;2023-02-22T11:17:30;8.85;;;5.07;;
19507;SDS011;40157;42.566;27.526;2023-02-22T11:19:33;10.55;;;4.97;;
19507;SDS011;40157;42.566;27.526;2023-02-22T11:21:37;10.93;;;4.90;;
19507;SDS011;40157;42.566;27.526;2023-02-22T11:23:40;7.38;;;4.55;;
19507;SDS011;40157;42.566;27.526;2023-02-22T11:25:42;11.40;;;4.97;;
19507;SDS011;40157;42.566;27.526;2023-02-22T11:27:43;9.43;;;4.63;;
19507;SDS011;40157;42.566;27.526;2023-02-22T11:29:45;10.40;;;5.40;;
19507;SDS011;40157;42.566;27.526;2023-02-22T11:31:49;9.80;;;5.28;;
19507;SDS011;40157;42.566;27.526;2023-02-22T11:35:58;10.05;;;5.85;;
19507;SDS011;40157;42.566;27.526;2023-02-22T11:40:33;10.15;;;5.60;;
19507;SDS011;40157;42.566;27.526;2023-02-22T11:42:34;12.20;;;6.15;;
19507;SDS011;40157;42.566;27.526;2023-02-22T11:44:34;10.35;;;6.78;;
19507;SDS011;40157;42.566;27.526;2023-02-22T11:46:35;13.15;;;6.82;;
19507;SDS011;40157;42.566;27.526;2023-02-22T11:48:37;11.98;;;5.88;;
19507;SDS011;40157;42.566;27.526;2023-02-22T11:50:58;13.18;;;6.00;;
19507;SDS011;40157;42.566;27.526;2023-02-22T11:56:08;11.77;;;6.15;;
19507;SDS011;40157;42.566;27.526;2023-02-22T11:58:03;12.63;;;6.38;;
19507;SDS011;40157;42.566;27.526;2023-02-22T12:02:30;10.88;;;5.82;;
19507;SDS011;40157;42.566;27.526;2023-02-22T12:04:53;11.05;;;5.53;;
19507;SDS011;40157;42.566;27.526;2023-02-22T12:11:26;11.55;;;5.28;;
19507;SDS011;40157;42.566;27.526;2023-02-22T12:20:24;13.38;;;5.40;;
19507;SDS011;40157;42.566;27.526;2023-02-22T12:22:33;15.07;;;5.65;;
19507;SDS011;40157;42.566;27.526;2023-02-22T12:24:41;10.55;;;4.65;;
19507;SDS011;40157;42.566;27.526;2023-02-22T12:27:08;11.05;;;4.97;;
19507;SDS011;40157;42.566;27.526;2023-02-22T12:29:33;12.95;;;6.53;;
19507;SDS011;40157;42.566;27.526;2023-02-22T12:31:48;17.48;;;7.40;;
19507;SDS011;40157;42.566;27.526;2023-02-22T12:36:31;11.65;;;4.85;;
19507;SDS011;40157;42.566;27.526;2023-02-22T12:38:40;12.65;;;5.38;;
19507;SDS011;40157;42.566;27.526;2023-02-22T12:42:59;10.93;;;4.80;;
19507;SDS011;40157;42.566;27.526;2023-02-22T12:45:11;9.05;;;4.75;;
19507;SDS011;40157;42.566;27.526;2023-02-22T12:47:17;8.77;;;4.47;;
19507;SDS011;40157;42.566;27.526;2023-02-22T12:51:56;9.40;;;4.60;;
19507;SDS011;40157;42.566;27.526;2023-02-22T12:54:06;6.45;;;4.07;;
19507;SDS011;40157;42.566;27.526;2023-02-22T12:56:15;10.70;;;4.18;;
19507;SDS011;40157;42.566;27.526;2023-02-22T12:58:38;11.10;;;4.68;;
19507;SDS011;40157;42.566;27.526;2023-02-22T13:00:53;10.43;;;5.13;;
19507;SDS011;40157;42.566;27.526;2023-02-22T13:05:43;9.95;;;4.95;;
19507;SDS011;40157;42.566;27.526;2023-02-22T13:08:07;7.13;;;4.47;;
19507;SDS011;40157;42.566;27.526;2023-02-22T13:21:59;11.40;;;5.32;;
19507;SDS011;40157;42.566;27.526;2023-02-22T13:24:24;13.30;;;5.45;;
19507;SDS011;40157;42.566;27.526;2023-02-22T13:26:53;8.80;;;5.07;;
19507;SDS011;40157;42.566;27.526;2023-02-22T13:31:21;11.80;;;3.95;;
19507;SDS011;40157;42.566;27.526;2023-02-22T13:33:51;9.15;;;4.45;;
19507;SDS011;40157;42.566;27.526;2023-02-22T13:36:08;7.60;;;3.88;;
19507;SDS011;40157;42.566;27.526;2023-02-22T13:50:39;17.40;;;7.65;;
19507;SDS011;40157;42.566;27.526;2023-02-22T13:52:57;10.50;;;4.75;;
19507;SDS011;40157;42.566;27.526;2023-02-22T13:55:05;12.25;;;4.57;;
19507;SDS011;40157;42.566;27.526;2023-02-22T13:57:18;7.88;;;4.43;;